Berlin Boro, New Jersey
Current Conditions -  °F | °C
As of 11:54 PM on Wednesday 22 Oct 2014 (Local Time) from KVAY Reporting Station
Moderate Rain Moderate Rain  
Wind Chill: 52°   Ceiling: 2200
Heat Index: 52°   Visibility: 5mi
Dew Point: 49°   Wind: 10mph
Humidity: 89%   Direction: 330°NNW
Pressure: 29.77"   Gusts: NA
Location:  39.7587°N, 74.9349°W
Report Text: KVAY 230354Z AUTO 33009KT 5SM RA BR FEW016 BKN022 OVC027 11/09 A2977 RMK AO2 SLP079 P0008 T01110094
Loading
Personal Weather Stations






























Interactive Weather Map
Tropical Storm Tracking
New forecast layout! Learn more

10-Day Weather Forecast

Advertisements
Track Severe Weather on mobile